Time;durP1;ratioP1;P1;durP2;ratioP2;P2;SDS_P1;SDS_P2;PMS_P1;PMS_P2;Temp;Humidity;BMP_temperature;BMP_pressure;BME280_temperature;BME280_humidity;BME280_pressure;Samples;Min_cycle;Max_cycle;Signal;HPM_P1;HPM_P2
2022/06/20 00:00:12;;;;;;;13.70;6.78;;;23.70;99.90;;;;;;5034298;28;20088;-77
2022/06/20 00:02:43;;;;;;;13.30;6.82;;;23.60;99.90;;;;;;5029336;28;20055;-77
2022/06/20 00:05:23;;;;;;;14.10;7.20;;;23.50;99.90;;;;;;5035869;28;20021;-76
2022/06/20 00:07:49;;;;;;;15.25;6.20;;;23.40;99.90;;;;;;5024753;28;20063;-77
2022/06/20 00:10:17;;;;;;;16.08;7.03;;;23.30;99.90;;;;;;5034784;28;20032;-76
2022/06/20 00:12:44;;;;;;;14.60;6.93;;;23.30;99.90;;;;;;5034916;28;20049;-76
2022/06/20 00:15:27;;;;;;;12.05;6.43;;;23.30;99.90;;;;;;5017045;28;20029;-76
2022/06/20 00:17:54;;;;;;;11.60;6.30;;;23.20;99.90;;;;;;5034619;28;20018;-76
2022/06/20 00:20:20;;;;;;;14.55;6.47;;;23.10;99.90;;;;;;5035127;28;20391;-77
2022/06/20 00:22:46;;;;;;;13.23;6.72;;;22.90;99.90;;;;;;5036194;28;20025;-77
2022/06/20 00:25:12;;;;;;;13.82;6.85;;;22.90;99.90;;;;;;5024425;28;20108;-76
2022/06/20 00:27:38;;;;;;;13.48;7.03;;;22.60;99.90;;;;;;5033956;28;20029;-76
2022/06/20 00:30:05;;;;;;;12.40;6.50;;;22.50;99.90;;;;;;5034104;28;20025;-76
2022/06/20 00:32:30;;;;;;;19.02;6.97;;;22.50;99.90;;;;;;5033233;28;20037;-78
2022/06/20 00:34:56;;;;;;;12.73;6.63;;;22.50;99.90;;;;;;5034179;28;20034;-76
2022/06/20 00:37:21;;;;;;;17.70;6.70;;;22.60;99.90;;;;;;5034307;28;20017;-76
2022/06/20 00:39:49;;;;;;;15.45;6.68;;;22.40;99.90;;;;;;5034126;28;20091;-76
2022/06/20 00:42:15;;;;;;;11.52;6.63;;;22.20;99.90;;;;;;5015264;28;20029;-76
2022/06/20 00:44:46;;;;;;;15.00;7.13;;;22.20;99.90;;;;;;5033904;28;20368;-76
2022/06/20 00:47:19;;;;;;;14.68;7.18;;;22.10;99.90;;;;;;5016633;28;20037;-77
2022/06/20 00:49:58;;;;;;;13.10;6.40;;;22.00;99.90;;;;;;5031913;28;20400;-76
2022/06/20 00:52:38;;;;;;;16.90;7.03;;;22.10;99.90;;;;;;5030191;28;20032;-76
2022/06/20 00:55:15;;;;;;;13.73;6.22;;;22.10;99.90;;;;;;5035389;28;20053;-77
2022/06/20 00:57:49;;;;;;;13.50;6.63;;;22.10;99.90;;;;;;5035745;28;20045;-76
2022/06/20 01:00:24;;;;;;;12.30;6.60;;;22.10;99.90;;;;;;5034088;28;20031;-77
2022/06/20 01:03:03;;;;;;;13.05;7.13;;;22.00;99.90;;;;;;5022193;28;20100;-77
2022/06/20 01:05:35;;;;;;;13.32;6.70;;;22.20;99.90;;;;;;5018824;28;20091;-77
2022/06/20 01:08:31;;;;;;;17.45;6.78;;;22.20;99.90;;;;;;5034934;28;20029;-77
2022/06/20 01:11:06;;;;;;;12.05;5.88;;;22.00;99.90;;;;;;4992973;28;20034;-77
2022/06/20 01:13:32;;;;;;;14.65;6.95;;;22.20;99.90;;;;;;5028447;28;20558;-77
2022/06/20 01:16:07;;;;;;;13.23;6.38;;;22.40;99.90;;;;;;5020019;28;20546;-78
2022/06/20 01:18:35;;;;;;;13.38;6.57;;;22.30;99.90;;;;;;5018148;28;20474;-79
2022/06/20 01:21:10;;;;;;;12.23;6.50;;;22.30;99.90;;;;;;5034242;28;20022;-76
2022/06/20 01:23:35;;;;;;;13.23;6.72;;;22.20;99.90;;;;;;5015993;28;20029;-77
2022/06/20 01:26:41;;;;;;;13.10;6.38;;;22.30;99.90;;;;;;5034877;28;20113;-77
2022/06/20 01:29:11;;;;;;;11.90;6.38;;;22.20;99.90;;;;;;5032532;28;20107;-77
2022/06/20 01:31:42;;;;;;;13.48;6.40;;;22.30;99.90;;;;;;5023699;28;20105;-75
2022/06/20 01:34:08;;;;;;;7.28;5.72;;;22.20;99.90;;;;;;5032828;28;20021;-77
2022/06/20 01:39:24;;;;;;;14.90;6.97;;;22.30;99.90;;;;;;5032622;28;20033;-76
2022/06/20 01:44:38;;;;;;;11.97;6.43;;;22.30;99.90;;;;;;5026834;28;20407;-75
2022/06/20 01:47:04;;;;;;;14.70;6.85;;;22.20;99.90;;;;;;5024456;28;20032;-77
2022/06/20 01:49:31;;;;;;;14.52;6.63;;;22.10;99.90;;;;;;5015006;28;20025;-76
2022/06/20 01:52:16;;;;;;;11.93;6.10;;;22.30;99.90;;;;;;5016618;28;20033;-76
2022/06/20 01:54:48;;;;;;;10.55;6.28;;;22.20;99.90;;;;;;5031736;28;20548;-78
2022/06/20 01:57:17;;;;;;;12.40;6.10;;;22.30;99.90;;;;;;5033395;28;20029;-78
2022/06/20 01:59:54;;;;;;;12.25;6.82;;;22.30;99.90;;;;;;5034008;28;20048;-78
2022/06/20 02:02:20;;;;;;;15.30;6.50;;;22.20;99.90;;;;;;5025045;28;20044;-76
2022/06/20 02:04:46;;;;;;;12.65;6.40;;;21.90;99.90;;;;;;5040256;28;20026;-76
2022/06/20 02:07:13;;;;;;;9.43;6.10;;;22.10;99.90;;;;;;5037496;28;20021;-76
2022/06/20 02:09:41;;;;;;;11.60;6.70;;;22.30;99.90;;;;;;5023696;28;20037;-77
2022/06/20 02:12:08;;;;;;;9.90;6.35;;;22.30;99.90;;;;;;5035174;28;20021;-77
2022/06/20 02:14:36;;;;;;;13.80;6.82;;;22.30;99.90;;;;;;5032073;28;20032;-77
2022/06/20 02:17:11;;;;;;;16.75;6.40;;;21.90;99.90;;;;;;5034354;28;20022;-79
2022/06/20 02:19:45;;;;;;;10.95;6.55;;;21.70;99.90;;;;;;5033343;28;20026;-76
2022/06/20 02:22:11;;;;;;;12.35;6.18;;;21.50;99.90;;;;;;5031508;28;20464;-77
2022/06/20 02:24:42;;;;;;;12.00;6.47;;;21.60;99.90;;;;;;5060486;23;20076;-74
2022/06/20 02:27:16;;;;;;;12.77;6.25;;;21.60;99.90;;;;;;5035461;28;20024;-74
2022/06/20 02:29:41;;;;;;;11.07;6.93;;;21.80;99.90;;;;;;5026811;28;20018;-74
2022/06/20 02:32:12;;;;;;;12.80;5.95;;;21.70;99.90;;;;;;5044463;28;20084;-74
2022/06/20 02:34:38;;;;;;;13.63;6.82;;;21.80;99.90;;;;;;5036791;28;20025;-75
2022/06/20 02:37:13;;;;;;;12.07;6.20;;;21.90;99.90;;;;;;5034905;28;20104;-74
2022/06/20 02:39:40;;;;;;;13.20;6.93;;;21.90;99.90;;;;;;5031765;28;20032;-73
2022/06/20 02:42:10;;;;;;;10.20;5.93;;;21.50;99.90;;;;;;5031064;28;20025;-73
2022/06/20 02:44:37;;;;;;;10.55;6.68;;;21.70;99.90;;;;;;5022702;28;20059;-73
2022/06/20 02:47:05;;;;;;;12.32;6.35;;;21.10;99.90;;;;;;5044520;28;20467;-74
2022/06/20 02:49:33;;;;;;;14.65;6.38;;;21.00;99.90;;;;;;5036010;28;20103;-75
2022/06/20 02:52:01;;;;;;;14.20;6.65;;;21.20;99.90;;;;;;5044604;28;20347;-72
2022/06/20 02:54:31;;;;;;;9.55;6.72;;;21.10;99.90;;;;;;5031493;28;20101;-73
2022/06/20 02:57:20;;;;;;;13.90;6.13;;;21.40;99.90;;;;;;5032368;28;20534;-73
2022/06/20 02:59:52;;;;;;;12.57;6.65;;;21.70;99.90;;;;;;5019048;28;20518;-72
2022/06/20 03:02:23;;;;;;;12.40;6.65;;;21.70;99.90;;;;;;5031269;28;20025;-72
2022/06/20 03:04:49;;;;;;;10.75;6.70;;;21.80;99.90;;;;;;5031076;28;20032;-72
2022/06/20 03:07:25;;;;;;;12.80;6.80;;;21.50;99.90;;;;;;5031312;28;20061;-73
2022/06/20 03:09:58;;;;;;;13.50;6.55;;;21.30;99.90;;;;;;5031405;28;20022;-72
2022/06/20 03:12:23;;;;;;;13.10;7.03;;;20.90;99.90;;;;;;5036215;28;20061;-73
2022/06/20 03:14:58;;;;;;;11.77;7.00;;;20.50;99.90;;;;;;5030035;28;20055;-73
2022/06/20 03:17:24;;;;;;;12.55;6.60;;;20.30;99.90;;;;;;5041959;28;20032;-73
2022/06/20 03:19:54;;;;;;;13.30;7.05;;;20.60;99.90;;;;;;5043097;28;20029;-73
2022/06/20 03:22:28;;;;;;;13.60;7.18;;;20.70;99.90;;;;;;5050396;28;20021;-73
2022/06/20 03:24:55;;;;;;;12.32;6.78;;;20.70;99.90;;;;;;5042384;28;20123;-73
2022/06/20 03:27:26;;;;;;;11.60;7.03;;;20.60;99.90;;;;;;5034124;28;20499;-73
2022/06/20 03:29:55;;;;;;;11.35;6.30;;;20.70;99.90;;;;;;5041538;28;20036;-72
2022/06/20 03:32:25;;;;;;;12.57;6.57;;;20.90;99.90;;;;;;5037927;28;20026;-73
2022/06/20 03:34:52;;;;;;;11.23;6.15;;;21.20;99.90;;;;;;5031117;28;20056;-72
2022/06/20 03:37:18;;;;;;;10.63;6.97;;;21.30;99.90;;;;;;5031185;28;20029;-72
2022/06/20 03:39:45;;;;;;;13.88;6.50;;;21.60;99.90;;;;;;5039657;28;20029;-72
2022/06/20 03:42:11;;;;;;;9.88;6.43;;;21.20;99.90;;;;;;5044017;28;20467;-74
2022/06/20 03:44:42;;;;;;;10.90;6.97;;;21.10;99.90;;;;;;5031117;28;20033;-74
2022/06/20 03:47:15;;;;;;;14.93;6.78;;;21.10;99.90;;;;;;5034970;28;20037;-74
2022/06/20 03:50:01;;;;;;;13.75;6.53;;;21.30;99.90;;;;;;5043382;28;20497;-75
2022/06/20 03:52:40;;;;;;;11.85;6.30;;;21.40;99.90;;;;;;5040396;28;20025;-75
2022/06/20 03:55:28;;;;;;;13.82;6.70;;;21.50;99.90;;;;;;5035756;28;20025;-74
2022/06/20 03:58:04;;;;;;;9.85;6.53;;;21.20;99.90;;;;;;5018873;28;20438;-75
2022/06/20 04:00:41;;;;;;;11.13;6.25;;;20.90;99.90;;;;;;5034726;28;20094;-74
2022/06/20 04:03:23;;;;;;;10.63;6.93;;;20.60;99.90;;;;;;5048251;28;20377;-75
2022/06/20 04:05:52;;;;;;;12.27;7.07;;;20.70;99.90;;;;;;5041273;28;20025;-75
2022/06/20 04:11:32;;;;;;;13.77;7.35;;;20.70;99.90;;;;;;5043781;28;20052;-73
2022/06/20 04:14:12;;;;;;;10.18;6.68;;;20.50;99.90;;;;;;5039537;28;20033;-73
2022/06/20 04:16:56;;;;;;;13.55;7.43;;;20.60;99.90;;;;;;5043095;28;20020;-73
2022/06/20 04:19:32;;;;;;;12.90;7.45;;;20.80;99.90;;;;;;5036767;28;20029;-74
2022/06/20 04:22:08;;;;;;;12.95;7.30;;;20.60;99.90;;;;;;5036750;28;20102;-74
2022/06/20 04:24:49;;;;;;;10.27;7.17;;;20.10;99.90;;;;;;5038058;28;20064;-75
2022/06/20 04:27:24;;;;;;;13.10;6.82;;;19.90;99.90;;;;;;5038703;28;20346;-74
2022/06/20 04:29:56;;;;;;;9.57;6.45;;;20.10;99.90;;;;;;5044066;28;20464;-74
2022/06/20 04:32:27;;;;;;;14.00;6.80;;;20.00;99.90;;;;;;5044560;28;20064;-75
2022/06/20 04:35:11;;;;;;;10.60;6.50;;;20.20;99.90;;;;;;5040395;28;20053;-75
2022/06/20 04:37:39;;;;;;;9.77;6.50;;;20.00;99.90;;;;;;5034771;28;20021;-75
2022/06/20 04:40:21;;;;;;;10.57;6.70;;;20.20;99.90;;;;;;5049526;28;20039;-75
2022/06/20 04:43:07;;;;;;;10.88;6.70;;;20.30;99.90;;;;;;5045605;28;20025;-76
2022/06/20 04:45:51;;;;;;;13.57;6.93;;;20.00;99.90;;;;;;5036680;28;20067;-76
2022/06/20 04:48:20;;;;;;;11.52;6.47;;;19.80;99.90;;;;;;5035832;28;20083;-76
2022/06/20 04:50:56;;;;;;;10.65;6.45;;;19.70;99.90;;;;;;5039112;28;20406;-76
2022/06/20 04:53:28;;;;;;;9.73;5.82;;;19.90;99.90;;;;;;5042181;28;20558;-75
2022/06/20 04:55:57;;;;;;;14.85;6.28;;;19.90;99.90;;;;;;5035846;28;20032;-75
2022/06/20 04:58:34;;;;;;;9.43;5.70;;;20.20;99.90;;;;;;5046630;28;20033;-76
2022/06/20 05:01:00;;;;;;;13.20;6.38;;;20.20;99.90;;;;;;5053542;28;20021;-78
2022/06/20 05:03:35;;;;;;;14.63;6.15;;;20.20;99.90;;;;;;5028528;28;20117;-77
2022/06/20 05:06:01;;;;;;;13.32;6.00;;;20.10;99.90;;;;;;5048926;28;20028;-75
2022/06/20 05:08:31;;;;;;;11.52;5.90;;;20.20;99.90;;;;;;5054263;28;20024;-77
2022/06/20 05:11:04;;;;;;;9.10;5.80;;;20.40;99.90;;;;;;5035251;28;20029;-76
2022/06/20 05:13:41;;;;;;;9.48;5.93;;;20.20;99.90;;;;;;5053414;28;20036;-70
2022/06/20 05:16:16;;;;;;;12.90;5.50;;;20.30;99.90;;;;;;5053363;28;20017;-70
2022/06/20 05:18:44;;;;;;;8.10;5.55;;;20.30;99.90;;;;;;5053177;28;20025;-70
2022/06/20 05:21:17;;;;;;;8.40;5.60;;;20.50;99.90;;;;;;5049156;28;20017;-70
2022/06/20 05:23:47;;;;;;;10.07;6.03;;;20.50;99.90;;;;;;5040067;28;20064;-70
2022/06/20 05:26:22;;;;;;;9.88;6.00;;;20.70;99.90;;;;;;5033118;28;20510;-70
2022/06/20 05:28:51;;;;;;;11.05;6.18;;;20.70;99.90;;;;;;5032871;28;20028;-70
2022/06/20 05:31:30;;;;;;;9.88;5.50;;;20.50;99.90;;;;;;5032413;28;20029;-69
2022/06/20 05:34:26;;;;;;;12.70;6.25;;;20.30;99.90;;;;;;5032985;28;20030;-70
2022/06/20 05:37:09;;;;;;;9.73;6.47;;;20.20;99.90;;;;;;5040613;28;20074;-69
2022/06/20 05:39:47;;;;;;;9.65;6.10;;;20.00;99.90;;;;;;5031632;28;20128;-76
2022/06/20 05:42:16;;;;;;;16.55;6.60;;;19.90;99.90;;;;;;5030418;28;20493;-76
2022/06/20 05:44:42;;;;;;;11.32;6.70;;;20.40;99.90;;;;;;5040331;28;20053;-74
2022/06/20 05:47:23;;;;;;;12.95;6.50;;;20.30;99.90;;;;;;5028286;28;20399;-74
2022/06/20 05:49:55;;;;;;;10.45;6.05;;;20.70;99.90;;;;;;5037512;28;20033;-76
2022/06/20 05:52:24;;;;;;;12.20;6.40;;;21.00;99.90;;;;;;5035029;28;20034;-75
2022/06/20 05:55:05;;;;;;;12.90;7.30;;;20.40;99.90;;;;;;5045941;28;20095;-76
2022/06/20 05:57:33;;;;;;;15.25;6.82;;;20.40;99.90;;;;;;5015807;28;20029;-76
2022/06/20 06:00:28;;;;;;;10.80;6.00;;;20.30;99.90;;;;;;5032749;28;20505;-76
2022/06/20 06:02:58;;;;;;;11.65;6.63;;;20.40;99.90;;;;;;5029931;28;20558;-77
2022/06/20 06:05:47;;;;;;;8.77;5.80;;;20.20;99.90;;;;;;5032422;28;20082;-76
2022/06/20 06:08:20;;;;;;;11.18;6.15;;;20.20;99.90;;;;;;5014688;28;20559;-77
2022/06/20 06:10:51;;;;;;;12.60;6.63;;;20.10;99.90;;;;;;5013919;28;20025;-75
2022/06/20 06:13:42;;;;;;;10.07;6.15;;;20.30;99.90;;;;;;5014721;28;20043;-77
2022/06/20 06:19:31;;;;;;;10.98;5.97;;;20.40;99.90;;;;;;5033102;28;20028;-75
2022/06/20 06:22:03;;;;;;;12.40;6.35;;;20.40;99.90;;;;;;5014070;28;20057;-77
2022/06/20 06:24:32;;;;;;;11.60;6.05;;;20.60;99.90;;;;;;5032197;28;20454;-76
2022/06/20 06:26:59;;;;;;;13.75;6.30;;;20.50;99.90;;;;;;5033649;28;20033;-74
2022/06/20 06:29:36;;;;;;;11.90;7.03;;;20.60;99.90;;;;;;5044728;28;20060;-75
2022/06/20 06:32:09;;;;;;;9.70;6.22;;;20.60;99.90;;;;;;5027181;28;20036;-74
2022/06/20 06:34:42;;;;;;;12.10;6.53;;;20.60;99.90;;;;;;5041978;28;20029;-76
2022/06/20 06:37:37;;;;;;;10.35;6.15;;;20.70;99.90;;;;;;5020904;28;20131;-74
2022/06/20 06:40:33;;;;;;;14.00;6.60;;;20.70;99.90;;;;;;5038016;28;20104;-74
2022/06/20 06:43:06;;;;;;;13.00;6.63;;;20.90;99.90;;;;;;5039475;28;20033;-75
2022/06/20 06:45:34;;;;;;;13.48;6.07;;;20.80;99.90;;;;;;5038574;28;20028;-75
2022/06/20 06:48:06;;;;;;;11.20;6.43;;;21.00;99.90;;;;;;5020809;28;20030;-75
2022/06/20 06:50:39;;;;;;;14.52;6.25;;;21.10;99.90;;;;;;5051087;28;20032;-74
2022/06/20 06:53:20;;;;;;;11.25;7.00;;;21.00;99.90;;;;;;5050185;28;20104;-74
2022/06/20 06:55:53;;;;;;;9.57;6.05;;;20.90;99.90;;;;;;5042310;28;20067;-74
2022/06/20 06:58:25;;;;;;;13.15;7.40;;;20.90;99.90;;;;;;5038405;28;20047;-75
2022/06/20 07:01:18;;;;;;;12.18;6.72;;;20.80;99.90;;;;;;5038839;28;20033;-74
2022/06/20 07:04:18;;;;;;;12.98;6.93;;;20.80;99.90;;;;;;5044778;28;20057;-74
2022/06/20 07:07:15;;;;;;;9.70;6.65;;;20.90;99.90;;;;;;5027953;28;20037;-74
2022/06/20 07:09:48;;;;;;;11.98;6.90;;;20.90;99.90;;;;;;5046931;28;20182;-74
2022/06/20 07:12:31;;;;;;;12.68;7.07;;;20.60;99.90;;;;;;5038957;28;20022;-75
2022/06/20 07:15:06;;;;;;;11.32;7.20;;;20.60;99.90;;;;;;5017358;28;20499;-74
2022/06/20 07:17:45;;;;;;;11.88;7.00;;;20.50;99.90;;;;;;5034188;28;20059;-74
2022/06/20 07:20:12;;;;;;;12.13;7.03;;;20.40;99.90;;;;;;5026773;28;20116;-74
2022/06/20 07:22:41;;;;;;;11.60;6.55;;;20.60;99.90;;;;;;5033279;28;20029;-71
2022/06/20 07:25:18;;;;;;;11.50;7.10;;;20.60;99.90;;;;;;5042814;28;20029;-74
2022/06/20 07:27:54;;;;;;;8.75;6.68;;;20.60;99.90;;;;;;5027090;28;20021;-74
2022/06/20 07:30:24;;;;;;;11.55;7.13;;;20.40;99.90;;;;;;5045097;28;20117;-74
2022/06/20 07:32:54;;;;;;;16.40;6.53;;;20.40;99.90;;;;;;5051171;28;20056;-73
2022/06/20 07:35:45;;;;;;;10.38;6.75;;;20.60;99.90;;;;;;5035845;28;20106;-74
2022/06/20 07:38:31;;;;;;;16.20;7.82;;;20.60;99.90;;;;;;5043203;28;20041;-74
2022/06/20 07:41:07;;;;;;;14.23;6.67;;;20.80;99.90;;;;;;5042379;28;20017;-74
2022/06/20 07:43:45;;;;;;;12.60;7.03;;;21.00;99.90;;;;;;5026870;28;20621;-74
2022/06/20 07:46:37;;;;;;;15.02;6.97;;;21.30;99.90;;;;;;5042518;28;20025;-74
2022/06/20 07:49:09;;;;;;;11.35;6.00;;;21.50;99.90;;;;;;5033302;28;20033;-74
2022/06/20 07:51:38;;;;;;;12.52;7.28;;;21.50;99.90;;;;;;5047448;28;20033;-74
2022/06/20 07:54:20;;;;;;;12.75;7.03;;;21.50;99.90;;;;;;5043539;28;20021;-73
2022/06/20 07:56:48;;;;;;;12.43;6.50;;;21.20;99.90;;;;;;5024729;28;20426;-74
2022/06/20 07:59:30;;;;;;;13.10;6.32;;;21.80;99.90;;;;;;5054801;28;20028;-74
2022/06/20 08:02:10;;;;;;;10.18;6.25;;;21.60;99.90;;;;;;5054071;28;20025;-70
2022/06/20 08:04:38;;;;;;;11.43;6.13;;;21.80;99.90;;;;;;5054608;28;20528;-69
2022/06/20 08:07:24;;;;;;;11.13;6.32;;;21.60;99.90;;;;;;5054597;28;20068;-69
2022/06/20 08:10:07;;;;;;;10.50;5.88;;;21.60;99.90;;;;;;5052958;28;20033;-69
2022/06/20 08:13:07;;;;;;;14.02;5.88;;;22.10;99.90;;;;;;5053686;28;20021;-69
2022/06/20 08:15:40;;;;;;;12.52;6.88;;;22.50;99.90;;;;;;5054446;28;20137;-69
2022/06/20 08:18:06;;;;;;;11.32;6.35;;;22.10;99.90;;;;;;5054423;28;20417;-70
2022/06/20 08:20:40;;;;;;;10.90;6.13;;;22.00;99.90;;;;;;5053716;28;20028;-69
2022/06/20 08:23:31;;;;;;;15.25;6.80;;;22.10;99.90;;;;;;5054415;28;20059;-69
2022/06/20 08:26:00;;;;;;;14.63;6.35;;;22.60;99.90;;;;;;5045711;22;20046;-69
2022/06/20 08:28:31;;;;;;;11.20;6.55;;;22.60;99.90;;;;;;5014531;28;20483;-69
2022/06/20 08:31:27;;;;;;;11.25;6.38;;;22.50;99.90;;;;;;5013891;28;20097;-69
2022/06/20 08:34:14;;;;;;;9.85;6.53;;;22.40;99.90;;;;;;4990886;28;20072;-69
2022/06/20 08:36:49;;;;;;;13.32;7.03;;;22.40;99.90;;;;;;5031000;28;20083;-69
2022/06/20 08:39:14;;;;;;;10.80;6.10;;;22.50;99.90;;;;;;5016317;28;20022;-69
2022/06/20 08:42:11;;;;;;;12.18;6.85;;;22.70;99.90;;;;;;5033408;28;20104;-69
2022/06/20 08:45:09;;;;;;;13.02;6.03;;;22.70;99.90;;;;;;5016483;28;20430;-69
2022/06/20 08:47:35;;;;;;;10.52;5.72;;;23.20;99.90;;;;;;5026530;28;20034;-70
2022/06/20 08:50:21;;;;;;;12.25;5.88;;;23.10;99.90;;;;;;5034156;28;20087;-69
2022/06/20 08:53:06;;;;;;;12.68;6.45;;;23.40;99.90;;;;;;5032486;28;20025;-70
2022/06/20 08:55:53;;;;;;;12.95;6.43;;;23.40;99.90;;;;;;5026825;28;20032;-69
2022/06/20 08:58:40;;;;;;;14.23;6.47;;;23.40;99.90;;;;;;5033141;28;20017;-70
2022/06/20 09:01:14;;;;;;;9.02;5.70;;;23.30;99.90;;;;;;5033370;28;20032;-74
2022/06/20 09:04:10;;;;;;;12.52;6.13;;;23.60;99.90;;;;;;5033445;28;20076;-73
2022/06/20 09:07:17;;;;;;;12.45;6.43;;;23.70;99.90;;;;;;5032990;28;20026;-70
2022/06/20 09:09:58;;;;;;;12.93;6.55;;;23.80;99.90;;;;;;5027718;28;20041;-69
2022/06/20 09:12:35;;;;;;;11.55;6.25;;;23.90;99.90;;;;;;5032840;28;20021;-69
2022/06/20 09:15:29;;;;;;;10.90;6.10;;;23.80;99.90;;;;;;5033429;28;20553;-69
2022/06/20 09:18:15;;;;;;;13.40;6.22;;;24.00;99.90;;;;;;5032459;28;20628;-69
2022/06/20 09:20:56;;;;;;;12.60;5.97;;;24.20;99.90;;;;;;5031472;28;20028;-69
2022/06/20 09:23:47;;;;;;;11.70;5.90;;;24.10;99.90;;;;;;5033367;28;20060;-70
2022/06/20 09:26:20;;;;;;;10.30;6.22;;;23.90;99.90;;;;;;5033132;28;20033;-69
2022/06/20 09:28:57;;;;;;;11.40;5.78;;;23.90;99.90;;;;;;5033130;28;20029;-70
2022/06/20 09:31:22;;;;;;;11.82;6.10;;;23.80;99.90;;;;;;5032539;28;20025;-70
2022/06/20 09:34:00;;;;;;;13.27;6.47;;;23.70;99.90;;;;;;5033084;28;20394;-69
2022/06/20 09:37:05;;;;;;;10.32;5.60;;;23.80;99.90;;;;;;5033037;28;20017;-70
2022/06/20 09:39:47;;;;;;;10.50;5.88;;;23.90;99.90;;;;;;5032461;28;20038;-69
2022/06/20 09:42:31;;;;;;;13.18;6.40;;;24.30;99.90;;;;;;5032815;28;20033;-70
2022/06/20 09:45:30;;;;;;;9.30;5.57;;;24.00;99.90;;;;;;5032721;28;20053;-70
2022/06/20 09:48:11;;;;;;;11.25;5.43;;;24.10;99.90;;;;;;5032712;28;20071;-70
2022/06/20 09:50:50;;;;;;;10.25;5.78;;;24.50;99.90;;;;;;5008004;28;20044;-70
2022/06/20 09:53:34;;;;;;;10.60;5.50;;;25.10;99.90;;;;;;5030456;28;20057;-68
2022/06/20 09:56:33;;;;;;;9.63;5.63;;;25.20;99.90;;;;;;5030853;28;20051;-70
2022/06/20 09:59:33;;;;;;;10.63;5.03;;;25.20;99.90;;;;;;5013967;28;20368;-70
2022/06/20 10:02:14;;;;;;;9.70;4.97;;;24.70;99.90;;;;;;5029266;28;20025;-70
2022/06/20 10:05:05;;;;;;;10.32;4.72;;;25.20;99.90;;;;;;5029732;28;20541;-70
2022/06/20 10:07:46;;;;;;;11.98;4.20;;;25.30;99.90;;;;;;5029282;28;20398;-70
2022/06/20 10:10:36;;;;;;;11.35;4.97;;;25.80;99.90;;;;;;5020955;28;20537;-70
2022/06/20 10:13:20;;;;;;;12.05;4.55;;;25.70;99.90;;;;;;5032391;28;20057;-70
2022/06/20 10:15:45;;;;;;;6.85;3.33;;;25.50;99.90;;;;;;5031503;28;20026;-69
2022/06/20 10:18:14;;;;;;;6.05;3.50;;;26.10;99.90;;;;;;5032434;28;20025;-70
2022/06/20 10:21:12;;;;;;;8.35;3.20;;;25.90;99.90;;;;;;5031470;28;20017;-70
2022/06/20 10:23:59;;;;;;;7.88;3.65;;;26.20;99.90;;;;;;4989316;28;20430;-70
2022/06/20 10:26:56;;;;;;;4.75;3.08;;;26.00;99.90;;;;;;5003471;28;20029;-70
2022/06/20 10:29:28;;;;;;;6.55;3.38;;;25.80;99.90;;;;;;5032103;28;20029;-70
2022/06/20 10:32:13;;;;;;;4.47;3.30;;;25.70;99.90;;;;;;5031466;28;20030;-70
2022/06/20 10:34:55;;;;;;;7.55;3.13;;;25.50;99.90;;;;;;5031946;28;20113;-69
2022/06/20 10:37:37;;;;;;;7.68;3.80;;;25.90;99.90;;;;;;5031892;28;20029;-70
2022/06/20 10:40:20;;;;;;;9.18;3.00;;;26.20;99.90;;;;;;5031834;28;20029;-70
2022/06/20 10:43:08;;;;;;;6.40;2.78;;;26.00;99.90;;;;;;5031930;28;20048;-70
2022/06/20 10:46:09;;;;;;;7.70;3.20;;;25.90;99.90;;;;;;5031633;28;20100;-70
2022/06/20 10:49:15;;;;;;;6.45;2.50;;;25.60;99.90;;;;;;5005691;28;20033;-70
2022/06/20 10:52:06;;;;;;;6.03;2.90;;;25.40;99.90;;;;;;5028030;28;20025;-69
2022/06/20 10:54:42;;;;;;;7.53;2.95;;;25.60;99.90;;;;;;5031619;28;20028;-70
2022/06/20 10:57:20;;;;;;;9.25;3.10;;;25.80;99.90;;;;;;5031692;28;20100;-71
2022/06/20 11:00:07;;;;;;;7.30;3.20;;;25.40;99.90;;;;;;5031635;28;20025;-70
2022/06/20 11:02:57;;;;;;;9.00;2.58;;;25.10;99.90;;;;;;5030957;28;20021;-70
2022/06/20 11:05:34;;;;;;;5.57;2.63;;;24.70;99.90;;;;;;5031583;28;20040;-70
2022/06/20 11:08:03;;;;;;;7.20;2.78;;;24.40;99.90;;;;;;5031493;28;20084;-70
2022/06/20 11:10:47;;;;;;;7.45;3.03;;;24.40;99.90;;;;;;5030856;28;20032;-70
2022/06/20 11:13:23;;;;;;;5.18;2.60;;;24.30;99.90;;;;;;5031454;28;20021;-70
2022/06/20 11:16:09;;;;;;;9.80;2.75;;;24.30;99.90;;;;;;5031330;28;20018;-69
2022/06/20 11:18:57;;;;;;;4.57;1.83;;;24.20;99.90;;;;;;5013710;28;20028;-70
2022/06/20 11:21:42;;;;;;;4.72;2.25;;;24.00;99.90;;;;;;5030824;28;20029;-70
2022/06/20 11:24:29;;;;;;;5.43;1.70;;;24.00;99.90;;;;;;5031444;28;20522;-70
2022/06/20 11:27:19;;;;;;;7.05;2.15;;;24.30;99.90;;;;;;5033012;28;20557;-70
2022/06/20 11:30:08;;;;;;;4.13;2.20;;;23.90;99.90;;;;;;5035465;28;20025;-70
2022/06/20 11:33:19;;;;;;;8.32;2.60;;;23.20;99.90;;;;;;5013032;28;20030;-70
2022/06/20 11:36:07;;;;;;;4.45;1.90;;;23.30;99.90;;;;;;5033665;28;20037;-70
2022/06/20 11:38:47;;;;;;;4.50;1.80;;;23.40;99.90;;;;;;5033394;28;20515;-69
2022/06/20 11:41:22;;;;;;;3.25;1.70;;;23.20;99.90;;;;;;5033397;28;20021;-69
2022/06/20 11:44:14;;;;;;;5.53;2.03;;;22.60;99.90;;;;;;5033992;28;20033;-69
2022/06/20 11:46:58;;;;;;;6.03;2.03;;;22.20;99.90;;;;;;5035041;28;20026;-70
2022/06/20 11:49:57;;;;;;;6.45;2.22;;;22.30;99.90;;;;;;5035298;28;20390;-70
2022/06/20 11:52:25;;;;;;;3.60;1.95;;;22.00;99.90;;;;;;5018878;28;20021;-70
2022/06/20 11:55:05;;;;;;;3.00;1.83;;;22.00;99.90;;;;;;5030835;28;20025;-73
2022/06/20 11:57:49;;;;;;;6.57;2.30;;;21.80;99.90;;;;;;5034985;28;20022;-73
2022/06/20 12:00:32;;;;;;;4.97;2.00;;;21.70;99.90;;;;;;5021471;28;20093;-74
2022/06/20 12:03:19;;;;;;;3.40;1.90;;;21.70;99.90;;;;;;5016907;28;20018;-73
2022/06/20 12:06:01;;;;;;;5.55;1.85;;;21.40;99.90;;;;;;5024864;28;20025;-74
2022/06/20 12:08:44;;;;;;;4.82;2.10;;;21.30;99.90;;;;;;5034899;28;20551;-73
2022/06/20 12:11:33;;;;;;;5.35;2.20;;;21.20;99.90;;;;;;5016209;28;20033;-73
2022/06/20 12:14:12;;;;;;;4.93;2.50;;;21.20;99.90;;;;;;5023961;28;20031;-73
2022/06/20 12:16:59;;;;;;;4.55;2.60;;;20.90;99.90;;;;;;5022261;28;20037;-73
2022/06/20 12:25:42;;;;;;;9.68;4.03;;;21.00;99.90;;;;;;5034401;28;20060;-73
2022/06/20 12:28:21;;;;;;;8.43;3.43;;;21.10;99.90;;;;;;5034582;28;20033;-73
2022/06/20 12:30:54;;;;;;;9.20;4.07;;;21.30;99.90;;;;;;5033745;28;20025;-73
2022/06/20 12:33:20;;;;;;;5.38;3.53;;;20.80;99.90;;;;;;5034319;28;20021;-73
2022/06/20 12:35:55;;;;;;;8.00;3.97;;;21.30;99.90;;;;;;5034304;28;20406;-74
2022/06/20 12:39:08;;;;;;;7.75;4.20;;;21.20;99.90;;;;;;5033154;28;20041;-74
2022/06/20 12:41:39;;;;;;;6.80;4.03;;;21.40;99.90;;;;;;5025835;28;20025;-73
2022/06/20 12:44:29;;;;;;;6.15;3.92;;;21.00;99.90;;;;;;5034161;28;20025;-73
2022/06/20 12:47:11;;;;;;;5.70;4.32;;;20.70;99.90;;;;;;5029372;28;20036;-73
2022/06/20 12:49:49;;;;;;;8.32;4.05;;;20.20;99.90;;;;;;5035649;28;20013;-72
2022/06/20 12:52:18;;;;;;;7.93;4.20;;;20.50;99.90;;;;;;5021829;28;20108;-74
2022/06/20 12:54:52;;;;;;;7.72;4.18;;;20.50;99.90;;;;;;5016169;28;20025;-73
2022/06/20 12:57:27;;;;;;;6.55;4.63;;;20.40;99.90;;;;;;5016049;28;20029;-73
2022/06/20 13:00:17;;;;;;;7.22;4.50;;;19.80;99.90;;;;;;5033947;28;20071;-73
2022/06/20 13:02:55;;;;;;;6.20;4.22;;;20.20;99.90;;;;;;5033788;28;20494;-73
2022/06/20 13:06:06;;;;;;;6.25;4.00;;;20.90;99.90;;;;;;5033625;28;20029;-73
2022/06/20 13:08:51;;;;;;;6.82;4.60;;;21.60;99.90;;;;;;5033714;28;20059;-73
2022/06/20 13:11:35;;;;;;;9.05;5.32;;;20.50;99.90;;;;;;5033036;28;20083;-73
2022/06/20 13:14:28;;;;;;;6.00;5.30;;;19.90;99.90;;;;;;5033504;28;20025;-73
2022/06/20 13:16:53;;;;;;;4.88;4.22;;;20.10;99.90;;;;;;5033540;28;20100;-73
2022/06/20 13:19:32;;;;;;;6.05;4.32;;;20.50;99.90;;;;;;5033484;28;20546;-73
2022/06/20 13:22:03;;;;;;;5.18;4.57;;;20.80;99.90;;;;;;5032821;28;20704;-73
2022/06/20 13:24:50;;;;;;;7.13;4.13;;;20.20;99.90;;;;;;5033410;28;20026;-73
2022/06/20 13:27:40;;;;;;;5.10;4.05;;;19.80;99.90;;;;;;5033260;28;20053;-73
2022/06/20 13:30:33;;;;;;;4.30;3.60;;;19.80;99.90;;;;;;5033251;28;20025;-72
2022/06/20 13:33:20;;;;;;;7.20;3.88;;;19.70;99.90;;;;;;5033213;28;20048;-73
2022/06/20 13:36:02;;;;;;;4.50;3.78;;;19.00;99.90;;;;;;5033184;28;20024;-73
2022/06/20 13:39:03;;;;;;;5.65;3.47;;;18.80;99.90;;;;;;5033432;28;20387;-73
2022/06/20 13:41:44;;;;;;;3.75;2.97;;;18.70;99.90;;;;;;5029231;28;20033;-73
2022/06/20 13:44:25;;;;;;;4.45;2.80;;;18.90;99.90;;;;;;5032984;28;20025;-73
2022/06/20 13:47:24;;;;;;;3.47;3.15;;;18.90;99.90;;;;;;5032853;28;20021;-73
2022/06/20 13:50:12;;;;;;;4.75;2.75;;;18.60;99.90;;;;;;5014838;28;20079;-73
2022/06/20 13:52:47;;;;;;;3.95;2.58;;;19.50;99.90;;;;;;5032095;28;20025;-72